Terminal Aerodrome Forecast
Issued by NWS

Home | Current Version | Previous Version | Graphics & Text | Print | Product List | Glossary On
Versions: 1 2 3 4 5 6 7 8 9 10 11 12 13 14 15 16 17 18
598
FTUS43 KGRB 241609 AAB
TAFAUW
TAF AMD
KAUW 241609Z 2416/2512 03009G16KT 1 1/2SM -SN BR SCT015 OVC035
      TEMPO 2416/2418 3SM -SN BKN015
     FM241800 01014G22KT 2SM -SN OVC010
     FM250300 36012G22KT 3SM -SN OVC015
     FM250600 35012G22KT 6SM -SN OVC020=

USA.gov is the U.S. government's official web portal to all federal, state and local government web resources and services.